createdAt,value
2022-11-30T00:00:30.443Z,47.83
2022-11-30T00:05:33.174Z,32.80
2022-11-30T00:10:35.633Z,42.90
2022-11-30T00:15:38.216Z,37.47
2022-11-30T00:20:40.663Z,44.77
2022-11-30T00:25:43.118Z,35.17
2022-11-30T00:30:45.627Z,45.13
2022-11-30T00:35:56.987Z,39.87
2022-11-30T00:41:00.777Z,59.37
2022-11-30T00:46:03.439Z,52.00
2022-11-30T00:51:07.487Z,41.87
2022-11-30T00:56:10.571Z,37.40
2022-11-30T01:01:13.054Z,53.20
2022-11-30T01:06:15.710Z,44.93
2022-11-30T01:11:24.579Z,34.10
2022-11-30T01:16:29.973Z,32.73
2022-11-30T01:21:32.569Z,34.30
2022-11-30T01:26:34.984Z,43.17
2022-11-30T01:31:37.373Z,32.97
2022-11-30T01:36:39.709Z,39.63
2022-11-30T01:41:42.904Z,51.43
2022-11-30T01:46:46.513Z,47.03
2022-11-30T01:51:52.797Z,51.63
2022-11-30T01:57:04.261Z,44.33
2022-11-30T02:02:06.871Z,35.70
2022-11-30T02:07:09.748Z,41.67
2022-11-30T02:12:30.864Z,44.83
2022-11-30T02:18:02.854Z,46.70
2022-11-30T02:23:26.790Z,34.13
2022-11-30T02:28:44.383Z,42.37
2022-11-30T02:33:49.126Z,49.83
2022-11-30T02:38:52.333Z,43.57
2022-11-30T02:43:54.724Z,42.77
2022-11-30T02:49:07.408Z,26.33
2022-11-30T02:54:10.314Z,31.97
2022-11-30T02:59:12.809Z,40.73
2022-11-30T03:04:15.381Z,48.03
2022-11-30T03:09:17.854Z,41.10
2022-11-30T03:14:20.396Z,29.03
2022-11-30T03:19:22.847Z,43.63
2022-11-30T03:24:25.654Z,51.33
2022-11-30T03:29:28.051Z,28.70
2022-11-30T03:34:30.502Z,41.10
2022-11-30T03:39:33.044Z,38.33
2022-11-30T03:44:35.482Z,37.60
2022-11-30T03:49:37.871Z,30.73
2022-11-30T03:54:40.251Z,33.93
2022-11-30T03:59:42.632Z,27.30
2022-11-30T04:04:45.434Z,34.13
2022-11-30T04:09:48.057Z,34.37
2022-11-30T04:14:50.437Z,42.53
2022-11-30T04:19:52.856Z,39.70
2022-11-30T04:24:55.191Z,42.30
2022-11-30T04:29:57.537Z,33.97
2022-11-30T04:35:00.029Z,49.00
2022-11-30T04:40:02.678Z,39.53
2022-11-30T04:45:05.453Z,39.40
2022-11-30T04:50:08.523Z,37.23
2022-11-30T04:55:10.956Z,37.33
2022-11-30T05:00:15.282Z,35.63
2022-11-30T05:05:17.793Z,51.77
2022-11-30T05:10:20.134Z,43.73
2022-11-30T05:15:22.831Z,36.13
2022-11-30T05:20:25.334Z,32.70
2022-11-30T05:25:27.843Z,38.40
2022-11-30T05:30:30.407Z,40.27
2022-11-30T05:35:32.942Z,38.13
2022-11-30T05:40:35.624Z,25.73
2022-11-30T05:45:38.067Z,39.60
2022-11-30T05:50:40.462Z,42.97
2022-11-30T05:55:42.866Z,33.33
2022-11-30T06:00:45.402Z,26.50
2022-11-30T06:05:51.403Z,33.50
2022-11-30T06:10:54.261Z,32.70
2022-11-30T06:16:00.197Z,35.40
2022-11-30T06:21:08.940Z,33.40
2022-11-30T06:26:12.848Z,35.00
2022-11-30T06:31:15.667Z,30.47
2022-11-30T06:36:24.432Z,37.93
2022-11-30T06:41:27.192Z,35.93
2022-11-30T06:46:29.661Z,33.27
2022-11-30T06:51:32.271Z,41.17
2022-11-30T06:56:34.635Z,50.23
2022-11-30T07:01:37.088Z,56.03
2022-11-30T07:06:39.496Z,47.70
2022-11-30T07:11:41.903Z,58.00
2022-11-30T07:16:44.307Z,64.87
2022-11-30T07:21:46.649Z,61.63
2022-11-30T07:26:49.039Z,57.13
2022-11-30T07:31:52.984Z,54.67
2022-11-30T07:36:55.440Z,57.03
2022-11-30T07:41:57.886Z,46.97
2022-11-30T07:47:01.705Z,37.57
2022-11-30T07:52:04.723Z,56.67
2022-11-30T07:57:07.122Z,57.67
2022-11-30T08:02:11.044Z,56.10
2022-11-30T08:07:13.583Z,60.93
2022-11-30T08:12:15.951Z,41.73
2022-11-30T08:17:18.762Z,46.33
2022-11-30T08:22:21.269Z,52.00
2022-11-30T08:27:23.862Z,52.70
2022-11-30T08:32:26.462Z,50.83
2022-11-30T08:37:29.039Z,51.90
2022-11-30T08:42:31.874Z,49.70
2022-11-30T08:47:34.650Z,45.30
2022-11-30T08:52:37.103Z,45.50
2022-11-30T08:57:39.787Z,46.60
2022-11-30T09:02:42.266Z,43.37
2022-11-30T09:07:44.706Z,42.50
2022-11-30T09:12:47.299Z,45.23
2022-11-30T09:17:50.097Z,46.43
2022-11-30T09:22:53.383Z,40.03
2022-11-30T09:27:55.739Z,48.47
2022-11-30T09:33:00.515Z,43.97
2022-11-30T09:38:03.906Z,43.07
2022-11-30T09:43:30.321Z,43.90
2022-11-30T09:49:02.624Z,37.80
2022-11-30T09:54:11.707Z,43.60
2022-11-30T09:59:29.682Z,57.20
2022-11-30T10:04:32.063Z,46.17
2022-11-30T10:10:15.920Z,44.30
2022-11-30T10:15:33.820Z,45.77
2022-11-30T10:20:58.823Z,52.73
2022-11-30T10:26:11.960Z,49.97
2022-11-30T10:31:15.602Z,37.77
2022-11-30T10:36:38.099Z,50.17
2022-11-30T10:41:47.644Z,39.83
2022-11-30T10:47:15.137Z,50.97
2022-11-30T10:52:25.938Z,44.87
2022-11-30T10:57:31.693Z,40.17
2022-11-30T11:02:43.441Z,58.40
2022-11-30T11:08:17.165Z,44.97
2022-11-30T11:13:36.010Z,39.97
2022-11-30T11:18:55.991Z,44.63
2022-11-30T11:23:58.739Z,46.00
2022-11-30T11:29:01.198Z,60.43
2022-11-30T11:34:05.783Z,63.03
2022-11-30T11:39:26.049Z,58.17
2022-11-30T11:44:28.548Z,40.13
2022-11-30T11:49:35.225Z,48.10
2022-11-30T11:54:51.735Z,39.80
2022-11-30T12:00:17.708Z,55.17
2022-11-30T12:05:29.841Z,37.40
2022-11-30T12:10:52.547Z,43.83
2022-11-30T12:16:19.934Z,45.60
2022-11-30T12:21:34.346Z,35.73
2022-11-30T12:26:50.765Z,40.00
2022-11-30T12:32:20.176Z,42.10
2022-11-30T12:37:51.950Z,49.20
2022-11-30T12:43:09.066Z,47.50
2022-11-30T12:48:38.771Z,44.90
2022-11-30T12:54:04.507Z,46.70
2022-11-30T12:59:21.951Z,41.03
2022-11-30T13:04:28.524Z,46.87
2022-11-30T13:09:49.462Z,46.33
2022-11-30T13:14:58.850Z,52.17
2022-11-30T13:20:15.842Z,33.87
2022-11-30T13:26:06.297Z,39.20
2022-11-30T13:30:59.566Z,36.33
2022-11-30T13:36:06.766Z,44.03
2022-11-30T13:41:09.444Z,50.53
2022-11-30T13:46:19.769Z,38.90
2022-11-30T13:51:40.218Z,41.40
2022-11-30T13:56:48.447Z,41.20
2022-11-30T14:07:52.834Z,44.40
2022-11-30T14:13:04.522Z,26.57
2022-11-30T14:18:09.643Z,55.67
2022-11-30T14:23:17.223Z,54.63
2022-11-30T14:28:34.794Z,61.80
2022-11-30T14:34:06.422Z,48.87
2022-11-30T14:39:33.728Z,58.33
2022-11-30T14:44:39.855Z,52.97
2022-11-30T14:49:47.940Z,52.43
2022-11-30T14:55:08.177Z,57.53
2022-11-30T15:00:19.903Z,54.63
2022-11-30T15:05:27.293Z,49.43
2022-11-30T15:10:33.069Z,48.43
2022-11-30T15:15:41.424Z,49.93
2022-11-30T15:20:47.839Z,55.57
2022-11-30T15:25:58.520Z,66.70
2022-11-30T15:31:04.671Z,63.53
2022-11-30T15:36:28.237Z,55.60
2022-11-30T15:41:30.870Z,48.57
2022-11-30T15:46:46.049Z,50.53
2022-11-30T15:52:02.299Z,59.97
2022-11-30T15:57:08.831Z,49.43
2022-11-30T16:02:32.643Z,44.87
2022-11-30T16:07:38.802Z,41.10
2022-11-30T16:12:43.674Z,50.50
2022-11-30T16:17:46.221Z,50.73
2022-11-30T16:22:49.358Z,59.17
2022-11-30T16:27:53.973Z,41.10
2022-11-30T16:32:56.407Z,48.27
2022-11-30T16:37:58.806Z,44.40
2022-11-30T16:43:01.246Z,51.53
2022-11-30T16:48:04.324Z,51.43
2022-11-30T16:53:06.921Z,43.27
2022-11-30T16:58:09.342Z,50.80
2022-11-30T17:03:29.801Z,47.73
2022-11-30T17:08:32.303Z,142.47
2022-11-30T17:13:34.719Z,135.40
2022-11-30T17:18:37.129Z,106.20
2022-11-30T17:23:39.589Z,108.80
2022-11-30T17:28:42.419Z,119.50
2022-11-30T17:33:48.129Z,68.87
2022-11-30T17:38:51.532Z,70.70
2022-11-30T17:43:53.974Z,72.53
2022-11-30T17:48:56.481Z,80.57
2022-11-30T17:53:58.872Z,68.77
2022-11-30T17:59:01.209Z,66.57
2022-11-30T18:04:03.725Z,57.30
2022-11-30T18:09:06.304Z,61.60
2022-11-30T18:14:08.705Z,50.53
2022-11-30T18:19:15.105Z,58.77
2022-11-30T18:24:21.212Z,56.90
2022-11-30T18:29:28.041Z,61.07
2022-11-30T18:34:30.462Z,52.07
2022-11-30T18:39:32.955Z,47.53
2022-11-30T18:44:35.554Z,64.87
2022-11-30T18:49:38.322Z,57.87
2022-11-30T18:54:40.629Z,39.23
2022-11-30T18:59:43.041Z,40.97
2022-11-30T19:04:45.545Z,76.33
2022-11-30T19:09:48.170Z,43.43
2022-11-30T19:14:50.817Z,50.10
2022-11-30T19:19:53.356Z,81.70
2022-11-30T19:24:55.962Z,47.17
2022-11-30T19:30:00.126Z,63.87
2022-11-30T19:35:02.568Z,40.30
2022-11-30T19:40:06.289Z,54.73
2022-11-30T19:45:09.601Z,42.77
2022-11-30T19:50:12.169Z,45.77
2022-11-30T19:55:14.727Z,43.80
2022-11-30T20:00:17.474Z,35.20
2022-11-30T20:05:19.871Z,44.03
2022-11-30T20:10:22.721Z,55.13
2022-11-30T20:15:25.770Z,101.43
2022-11-30T20:20:28.171Z,40.87
2022-11-30T20:25:31.934Z,41.17
2022-11-30T20:30:34.404Z,38.07
2022-11-30T20:35:37.009Z,29.70
2022-11-30T20:40:40.029Z,41.27
2022-11-30T20:45:42.678Z,37.10
2022-11-30T20:51:00.942Z,35.93
2022-11-30T20:56:08.950Z,41.03
2022-11-30T21:01:14.287Z,37.00
2022-11-30T21:06:16.967Z,36.83
2022-11-30T21:11:20.837Z,28.17
2022-11-30T21:16:28.144Z,29.30
2022-11-30T21:21:34.040Z,33.20
2022-11-30T21:26:41.764Z,38.20
2022-11-30T21:31:45.048Z,32.07
2022-11-30T21:36:47.818Z,34.80
2022-11-30T21:41:50.426Z,34.57
2022-11-30T21:46:53.008Z,41.97
2022-11-30T21:51:55.409Z,29.47
2022-11-30T21:56:57.775Z,41.37
2022-11-30T22:02:00.367Z,43.33
2022-11-30T22:07:02.926Z,61.27
2022-11-30T22:12:05.789Z,36.90
2022-11-30T22:17:08.598Z,34.17
2022-11-30T22:22:10.911Z,47.07
2022-11-30T22:27:13.397Z,25.33
2022-11-30T22:32:15.955Z,29.13
2022-11-30T22:37:18.275Z,34.23
2022-11-30T22:42:20.716Z,30.87
2022-11-30T22:47:23.153Z,28.30
2022-11-30T22:52:48.161Z,31.03
2022-11-30T22:57:48.206Z,33.93
2022-11-30T23:02:50.581Z,31.10
2022-11-30T23:07:52.986Z,23.73
2022-11-30T23:13:00.042Z,23.93
2022-11-30T23:18:02.734Z,27.03
2022-11-30T23:23:05.186Z,31.97
2022-11-30T23:28:07.670Z,47.20
2022-11-30T23:33:10.497Z,27.60
2022-11-30T23:38:12.987Z,24.33
2022-11-30T23:43:15.373Z,21.97
2022-11-30T23:48:17.762Z,25.70
2022-11-30T23:53:20.681Z,22.80
2022-11-30T23:58:23.768Z,27.10
